sensor_id;sensor_type;location;lat;lon;timestamp;P1;durP1;ratioP1;P2;durP2;ratioP2
5704;SDS011;2877;48.238;11.160;2022-12-18T00:01:47;24.03;;;12.40;;
5704;SDS011;2877;48.238;11.160;2022-12-18T00:04:31;35.80;;;13.80;;
5704;SDS011;2877;48.238;11.160;2022-12-18T00:06:57;28.67;;;12.93;;
5704;SDS011;2877;48.238;11.160;2022-12-18T00:09:22;24.00;;;10.97;;
5704;SDS011;2877;48.238;11.160;2022-12-18T00:11:48;24.60;;;12.27;;
5704;SDS011;2877;48.238;11.160;2022-12-18T00:14:14;26.40;;;12.60;;
5704;SDS011;2877;48.238;11.160;2022-12-18T00:16:39;28.90;;;12.47;;
5704;SDS011;2877;48.238;11.160;2022-12-18T00:19:08;29.37;;;12.93;;
5704;SDS011;2877;48.238;11.160;2022-12-18T00:21:35;25.43;;;11.20;;
5704;SDS011;2877;48.238;11.160;2022-12-18T00:24:00;31.00;;;13.73;;
5704;SDS011;2877;48.238;11.160;2022-12-18T00:26:27;25.80;;;12.10;;
5704;SDS011;2877;48.238;11.160;2022-12-18T00:28:54;23.93;;;11.63;;
5704;SDS011;2877;48.238;11.160;2022-12-18T00:31:22;33.50;;;14.33;;
5704;SDS011;2877;48.238;11.160;2022-12-18T00:33:49;29.60;;;14.70;;
5704;SDS011;2877;48.238;11.160;2022-12-18T00:36:16;34.70;;;15.87;;
5704;SDS011;2877;48.238;11.160;2022-12-18T00:38:44;33.80;;;15.27;;
5704;SDS011;2877;48.238;11.160;2022-12-18T00:41:11;32.10;;;15.10;;
5704;SDS011;2877;48.238;11.160;2022-12-18T00:43:37;38.33;;;14.47;;
5704;SDS011;2877;48.238;11.160;2022-12-18T00:46:04;42.83;;;15.90;;
5704;SDS011;2877;48.238;11.160;2022-12-18T00:48:30;44.43;;;18.30;;
5704;SDS011;2877;48.238;11.160;2022-12-18T00:50:55;49.33;;;20.60;;
5704;SDS011;2877;48.238;11.160;2022-12-18T00:53:21;42.57;;;19.17;;
5704;SDS011;2877;48.238;11.160;2022-12-18T00:55:46;66.77;;;21.10;;
5704;SDS011;2877;48.238;11.160;2022-12-18T00:58:13;48.53;;;18.87;;
5704;SDS011;2877;48.238;11.160;2022-12-18T01:00:40;50.20;;;20.90;;
5704;SDS011;2877;48.238;11.160;2022-12-18T01:03:06;49.43;;;18.40;;
5704;SDS011;2877;48.238;11.160;2022-12-18T01:05:32;50.83;;;19.80;;
5704;SDS011;2877;48.238;11.160;2022-12-18T01:07:58;44.17;;;18.00;;
5704;SDS011;2877;48.238;11.160;2022-12-18T01:10:24;49.60;;;20.03;;
5704;SDS011;2877;48.238;11.160;2022-12-18T01:12:50;55.23;;;19.90;;
5704;SDS011;2877;48.238;11.160;2022-12-18T01:15:16;44.03;;;18.07;;
5704;SDS011;2877;48.238;11.160;2022-12-18T01:17:42;46.07;;;19.57;;
5704;SDS011;2877;48.238;11.160;2022-12-18T01:20:08;52.63;;;20.93;;
5704;SDS011;2877;48.238;11.160;2022-12-18T01:22:35;39.80;;;17.50;;
5704;SDS011;2877;48.238;11.160;2022-12-18T01:25:01;48.40;;;20.50;;
5704;SDS011;2877;48.238;11.160;2022-12-18T01:27:27;47.10;;;19.33;;
5704;SDS011;2877;48.238;11.160;2022-12-18T01:29:53;46.70;;;19.30;;
5704;SDS011;2877;48.238;11.160;2022-12-18T01:32:19;47.00;;;19.97;;
5704;SDS011;2877;48.238;11.160;2022-12-18T01:34:45;45.57;;;20.17;;
5704;SDS011;2877;48.238;11.160;2022-12-18T01:37:10;46.73;;;17.33;;
5704;SDS011;2877;48.238;11.160;2022-12-18T01:39:36;49.40;;;19.53;;
5704;SDS011;2877;48.238;11.160;2022-12-18T01:42:02;43.97;;;17.80;;
5704;SDS011;2877;48.238;11.160;2022-12-18T01:47:19;43.60;;;17.97;;
5704;SDS011;2877;48.238;11.160;2022-12-18T01:49:48;39.47;;;16.10;;
5704;SDS011;2877;48.238;11.160;2022-12-18T01:52:14;39.20;;;17.60;;
5704;SDS011;2877;48.238;11.160;2022-12-18T01:54:42;46.03;;;17.30;;
5704;SDS011;2877;48.238;11.160;2022-12-18T01:57:08;42.53;;;16.70;;
5704;SDS011;2877;48.238;11.160;2022-12-18T01:59:34;44.53;;;15.60;;
5704;SDS011;2877;48.238;11.160;2022-12-18T02:02:01;33.97;;;15.70;;
5704;SDS011;2877;48.238;11.160;2022-12-18T02:04:28;38.03;;;15.07;;
5704;SDS011;2877;48.238;11.160;2022-12-18T02:07:05;33.53;;;14.50;;
5704;SDS011;2877;48.238;11.160;2022-12-18T02:09:52;36.97;;;14.20;;
5704;SDS011;2877;48.238;11.160;2022-12-18T02:12:24;36.10;;;14.77;;
5704;SDS011;2877;48.238;11.160;2022-12-18T02:17:50;36.67;;;14.27;;
5704;SDS011;2877;48.238;11.160;2022-12-18T02:20:28;40.80;;;13.23;;
5704;SDS011;2877;48.238;11.160;2022-12-18T02:23:20;30.47;;;12.67;;
5704;SDS011;2877;48.238;11.160;2022-12-18T02:28:55;36.83;;;13.37;;
5704;SDS011;2877;48.238;11.160;2022-12-18T02:31:30;37.17;;;12.13;;
5704;SDS011;2877;48.238;11.160;2022-12-18T02:34:01;37.67;;;12.90;;
5704;SDS011;2877;48.238;11.160;2022-12-18T02:36:29;38.03;;;12.83;;
5704;SDS011;2877;48.238;11.160;2022-12-18T02:38:57;34.27;;;14.00;;
5704;SDS011;2877;48.238;11.160;2022-12-18T02:41:24;34.73;;;13.27;;
5704;SDS011;2877;48.238;11.160;2022-12-18T02:43:55;30.60;;;13.43;;
5704;SDS011;2877;48.238;11.160;2022-12-18T02:48:55;29.73;;;13.77;;
5704;SDS011;2877;48.238;11.160;2022-12-18T02:51:49;37.20;;;13.07;;
5704;SDS011;2877;48.238;11.160;2022-12-18T02:54:23;38.40;;;13.10;;
5704;SDS011;2877;48.238;11.160;2022-12-18T03:02:38;31.53;;;12.63;;
5704;SDS011;2877;48.238;11.160;2022-12-18T03:08:29;33.80;;;13.47;;
5704;SDS011;2877;48.238;11.160;2022-12-18T03:10:35;32.23;;;13.63;;
5704;SDS011;2877;48.238;11.160;2022-12-18T03:13:07;33.70;;;13.80;;
5704;SDS011;2877;48.238;11.160;2022-12-18T03:15:37;36.07;;;13.83;;
5704;SDS011;2877;48.238;11.160;2022-12-18T03:18:16;33.87;;;13.40;;
5704;SDS011;2877;48.238;11.160;2022-12-18T03:20:55;33.70;;;13.80;;
5704;SDS011;2877;48.238;11.160;2022-12-18T03:23:25;36.77;;;14.20;;
5704;SDS011;2877;48.238;11.160;2022-12-18T03:25:54;38.00;;;14.57;;
5704;SDS011;2877;48.238;11.160;2022-12-18T03:28:23;30.73;;;14.07;;
5704;SDS011;2877;48.238;11.160;2022-12-18T03:30:50;44.37;;;14.23;;
5704;SDS011;2877;48.238;11.160;2022-12-18T03:33:27;34.93;;;13.33;;
5704;SDS011;2877;48.238;11.160;2022-12-18T03:36:04;38.93;;;14.57;;
5704;SDS011;2877;48.238;11.160;2022-12-18T03:38:30;36.23;;;13.60;;
5704;SDS011;2877;48.238;11.160;2022-12-18T03:40:59;35.67;;;14.50;;
5704;SDS011;2877;48.238;11.160;2022-12-18T03:43:45;30.77;;;13.30;;
5704;SDS011;2877;48.238;11.160;2022-12-18T03:46:27;37.67;;;13.63;;
5704;SDS011;2877;48.238;11.160;2022-12-18T03:49:09;38.17;;;14.60;;
5704;SDS011;2877;48.238;11.160;2022-12-18T03:51:59;31.93;;;13.67;;
5704;SDS011;2877;48.238;11.160;2022-12-18T03:54:28;32.43;;;13.20;;
5704;SDS011;2877;48.238;11.160;2022-12-18T03:56:58;38.30;;;13.20;;
5704;SDS011;2877;48.238;11.160;2022-12-18T03:59:27;38.80;;;14.70;;
5704;SDS011;2877;48.238;11.160;2022-12-18T04:01:55;43.43;;;16.50;;
5704;SDS011;2877;48.238;11.160;2022-12-18T04:04:23;38.17;;;15.30;;
5704;SDS011;2877;48.238;11.160;2022-12-18T04:06:50;39.27;;;15.37;;
5704;SDS011;2877;48.238;11.160;2022-12-18T04:09:17;40.90;;;16.60;;
5704;SDS011;2877;48.238;11.160;2022-12-18T04:11:43;42.40;;;15.90;;
5704;SDS011;2877;48.238;11.160;2022-12-18T04:14:10;42.13;;;15.77;;
5704;SDS011;2877;48.238;11.160;2022-12-18T04:16:36;39.37;;;15.63;;
5704;SDS011;2877;48.238;11.160;2022-12-18T04:19:01;39.53;;;14.50;;
5704;SDS011;2877;48.238;11.160;2022-12-18T04:21:27;43.00;;;15.60;;
5704;SDS011;2877;48.238;11.160;2022-12-18T04:23:53;47.33;;;15.50;;
5704;SDS011;2877;48.238;11.160;2022-12-18T04:26:18;41.93;;;14.80;;
5704;SDS011;2877;48.238;11.160;2022-12-18T04:28:44;37.40;;;15.97;;
5704;SDS011;2877;48.238;11.160;2022-12-18T04:31:09;41.57;;;15.37;;
5704;SDS011;2877;48.238;11.160;2022-12-18T04:33:35;36.87;;;14.63;;
5704;SDS011;2877;48.238;11.160;2022-12-18T04:36:00;43.50;;;15.10;;
5704;SDS011;2877;48.238;11.160;2022-12-18T04:38:26;37.77;;;15.80;;
5704;SDS011;2877;48.238;11.160;2022-12-18T04:40:51;41.87;;;15.47;;
5704;SDS011;2877;48.238;11.160;2022-12-18T04:43:17;38.20;;;13.83;;
5704;SDS011;2877;48.238;11.160;2022-12-18T04:45:42;39.70;;;15.67;;
5704;SDS011;2877;48.238;11.160;2022-12-18T04:48:08;36.33;;;15.20;;
5704;SDS011;2877;48.238;11.160;2022-12-18T04:50:33;38.30;;;15.57;;
5704;SDS011;2877;48.238;11.160;2022-12-18T04:52:59;37.37;;;14.47;;
5704;SDS011;2877;48.238;11.160;2022-12-18T04:55:25;37.93;;;14.83;;
5704;SDS011;2877;48.238;11.160;2022-12-18T04:57:50;45.53;;;16.23;;
5704;SDS011;2877;48.238;11.160;2022-12-18T05:00:16;40.83;;;15.60;;
5704;SDS011;2877;48.238;11.160;2022-12-18T05:02:42;39.83;;;14.80;;
5704;SDS011;2877;48.238;11.160;2022-12-18T05:05:08;31.57;;;13.43;;
5704;SDS011;2877;48.238;11.160;2022-12-18T05:07:34;37.20;;;15.47;;
5704;SDS011;2877;48.238;11.160;2022-12-18T05:09:59;39.90;;;14.87;;
5704;SDS011;2877;48.238;11.160;2022-12-18T05:12:25;33.50;;;14.67;;
5704;SDS011;2877;48.238;11.160;2022-12-18T05:14:51;37.87;;;14.67;;
5704;SDS011;2877;48.238;11.160;2022-12-18T05:17:16;40.50;;;14.67;;
5704;SDS011;2877;48.238;11.160;2022-12-18T05:19:42;36.30;;;14.67;;
5704;SDS011;2877;48.238;11.160;2022-12-18T05:22:08;32.17;;;14.30;;
5704;SDS011;2877;48.238;11.160;2022-12-18T05:24:34;41.37;;;14.37;;
5704;SDS011;2877;48.238;11.160;2022-12-18T05:27:00;36.40;;;14.17;;
5704;SDS011;2877;48.238;11.160;2022-12-18T05:29:25;39.83;;;16.00;;
5704;SDS011;2877;48.238;11.160;2022-12-18T05:31:51;34.63;;;13.80;;
5704;SDS011;2877;48.238;11.160;2022-12-18T05:34:16;40.67;;;14.77;;
5704;SDS011;2877;48.238;11.160;2022-12-18T05:36:42;38.27;;;14.40;;
5704;SDS011;2877;48.238;11.160;2022-12-18T05:39:08;34.40;;;14.17;;
5704;SDS011;2877;48.238;11.160;2022-12-18T05:41:34;29.87;;;12.50;;
5704;SDS011;2877;48.238;11.160;2022-12-18T05:44:00;38.20;;;15.27;;
5704;SDS011;2877;48.238;11.160;2022-12-18T05:46:25;35.70;;;14.40;;
5704;SDS011;2877;48.238;11.160;2022-12-18T05:48:51;36.23;;;14.00;;
5704;SDS011;2877;48.238;11.160;2022-12-18T05:51:17;40.43;;;15.50;;
5704;SDS011;2877;48.238;11.160;2022-12-18T05:53:45;35.73;;;14.63;;
5704;SDS011;2877;48.238;11.160;2022-12-18T05:56:12;32.33;;;14.87;;
5704;SDS011;2877;48.238;11.160;2022-12-18T05:58:39;34.00;;;14.00;;
5704;SDS011;2877;48.238;11.160;2022-12-18T06:01:06;28.43;;;13.47;;
5704;SDS011;2877;48.238;11.160;2022-12-18T06:03:38;31.80;;;13.67;;
5704;SDS011;2877;48.238;11.160;2022-12-18T06:06:04;36.77;;;14.50;;
5704;SDS011;2877;48.238;11.160;2022-12-18T06:08:40;31.97;;;14.07;;
5704;SDS011;2877;48.238;11.160;2022-12-18T06:11:05;35.83;;;15.00;;
5704;SDS011;2877;48.238;11.160;2022-12-18T06:13:31;34.43;;;11.93;;
5704;SDS011;2877;48.238;11.160;2022-12-18T06:15:56;29.20;;;12.37;;
5704;SDS011;2877;48.238;11.160;2022-12-18T06:18:22;30.53;;;13.00;;
5704;SDS011;2877;48.238;11.160;2022-12-18T06:20:54;34.77;;;14.10;;
5704;SDS011;2877;48.238;11.160;2022-12-18T06:23:21;32.63;;;13.50;;
5704;SDS011;2877;48.238;11.160;2022-12-18T06:25:46;27.20;;;11.43;;
5704;SDS011;2877;48.238;11.160;2022-12-18T06:28:12;29.70;;;13.53;;
5704;SDS011;2877;48.238;11.160;2022-12-18T06:30:37;33.70;;;13.20;;
5704;SDS011;2877;48.238;11.160;2022-12-18T06:33:03;28.53;;;13.27;;
5704;SDS011;2877;48.238;11.160;2022-12-18T06:35:28;38.33;;;13.80;;
5704;SDS011;2877;48.238;11.160;2022-12-18T06:37:54;34.53;;;14.00;;
5704;SDS011;2877;48.238;11.160;2022-12-18T06:40:19;29.07;;;11.43;;
5704;SDS011;2877;48.238;11.160;2022-12-18T06:42:45;36.33;;;14.07;;
5704;SDS011;2877;48.238;11.160;2022-12-18T06:45:11;37.03;;;12.83;;
5704;SDS011;2877;48.238;11.160;2022-12-18T06:47:36;31.73;;;12.63;;
5704;SDS011;2877;48.238;11.160;2022-12-18T06:50:02;33.33;;;13.37;;
5704;SDS011;2877;48.238;11.160;2022-12-18T06:52:28;30.50;;;13.70;;
5704;SDS011;2877;48.238;11.160;2022-12-18T06:54:53;33.73;;;12.70;;
5704;SDS011;2877;48.238;11.160;2022-12-18T06:57:19;27.70;;;11.70;;
5704;SDS011;2877;48.238;11.160;2022-12-18T06:59:44;29.40;;;12.30;;
5704;SDS011;2877;48.238;11.160;2022-12-18T07:02:11;28.00;;;11.93;;
5704;SDS011;2877;48.238;11.160;2022-12-18T07:04:37;33.47;;;13.30;;
5704;SDS011;2877;48.238;11.160;2022-12-18T07:07:03;31.73;;;12.60;;
5704;SDS011;2877;48.238;11.160;2022-12-18T07:09:28;26.80;;;11.77;;
5704;SDS011;2877;48.238;11.160;2022-12-18T07:11:54;27.10;;;12.60;;
5704;SDS011;2877;48.238;11.160;2022-12-18T07:14:19;30.03;;;12.80;;
5704;SDS011;2877;48.238;11.160;2022-12-18T07:16:45;29.30;;;12.80;;
5704;SDS011;2877;48.238;11.160;2022-12-18T07:19:11;29.23;;;13.00;;
5704;SDS011;2877;48.238;11.160;2022-12-18T07:21:36;28.47;;;12.90;;
5704;SDS011;2877;48.238;11.160;2022-12-18T07:24:02;30.80;;;13.77;;
5704;SDS011;2877;48.238;11.160;2022-12-18T07:26:28;30.57;;;12.73;;
5704;SDS011;2877;48.238;11.160;2022-12-18T07:28:56;28.43;;;12.90;;
5704;SDS011;2877;48.238;11.160;2022-12-18T07:31:22;33.17;;;12.30;;
5704;SDS011;2877;48.238;11.160;2022-12-18T07:33:49;33.20;;;13.63;;
5704;SDS011;2877;48.238;11.160;2022-12-18T07:36:15;30.20;;;12.20;;
5704;SDS011;2877;48.238;11.160;2022-12-18T07:38:41;29.17;;;12.80;;
5704;SDS011;2877;48.238;11.160;2022-12-18T07:41:08;32.73;;;12.63;;
5704;SDS011;2877;48.238;11.160;2022-12-18T07:43:35;31.53;;;12.93;;
5704;SDS011;2877;48.238;11.160;2022-12-18T07:46:02;32.90;;;14.27;;
5704;SDS011;2877;48.238;11.160;2022-12-18T07:48:28;24.63;;;12.43;;
5704;SDS011;2877;48.238;11.160;2022-12-18T07:50:57;28.43;;;13.60;;
5704;SDS011;2877;48.238;11.160;2022-12-18T07:53:27;25.57;;;11.93;;
5704;SDS011;2877;48.238;11.160;2022-12-18T07:55:57;28.10;;;12.30;;
5704;SDS011;2877;48.238;11.160;2022-12-18T07:58:23;28.50;;;12.87;;
5704;SDS011;2877;48.238;11.160;2022-12-18T08:00:49;31.90;;;12.67;;
5704;SDS011;2877;48.238;11.160;2022-12-18T08:03:15;28.43;;;12.93;;
5704;SDS011;2877;48.238;11.160;2022-12-18T08:05:41;29.50;;;13.00;;
5704;SDS011;2877;48.238;11.160;2022-12-18T08:08:06;32.57;;;13.47;;
5704;SDS011;2877;48.238;11.160;2022-12-18T08:10:32;29.00;;;11.17;;
5704;SDS011;2877;48.238;11.160;2022-12-18T08:12:58;26.50;;;12.70;;
5704;SDS011;2877;48.238;11.160;2022-12-18T08:15:23;27.63;;;13.10;;
5704;SDS011;2877;48.238;11.160;2022-12-18T08:17:49;28.10;;;12.50;;
5704;SDS011;2877;48.238;11.160;2022-12-18T08:20:14;24.90;;;11.77;;
5704;SDS011;2877;48.238;11.160;2022-12-18T08:22:43;27.30;;;11.87;;
5704;SDS011;2877;48.238;11.160;2022-12-18T08:25:09;27.60;;;12.90;;
5704;SDS011;2877;48.238;11.160;2022-12-18T08:27:35;25.20;;;11.33;;
5704;SDS011;2877;48.238;11.160;2022-12-18T08:30:01;27.07;;;11.27;;
5704;SDS011;2877;48.238;11.160;2022-12-18T08:32:26;27.27;;;13.23;;
5704;SDS011;2877;48.238;11.160;2022-12-18T08:34:53;30.77;;;12.90;;
5704;SDS011;2877;48.238;11.160;2022-12-18T08:37:18;30.73;;;12.07;;
5704;SDS011;2877;48.238;11.160;2022-12-18T08:39:44;25.10;;;11.80;;
5704;SDS011;2877;48.238;11.160;2022-12-18T08:42:10;28.23;;;12.70;;
5704;SDS011;2877;48.238;11.160;2022-12-18T08:44:54;22.20;;;11.10;;
5704;SDS011;2877;48.238;11.160;2022-12-18T08:47:19;24.83;;;10.60;;
5704;SDS011;2877;48.238;11.160;2022-12-18T08:49:45;29.50;;;12.60;;
5704;SDS011;2877;48.238;11.160;2022-12-18T08:52:10;21.63;;;11.33;;
5704;SDS011;2877;48.238;11.160;2022-12-18T08:54:36;27.57;;;12.07;;
5704;SDS011;2877;48.238;11.160;2022-12-18T08:57:02;23.00;;;11.67;;
5704;SDS011;2877;48.238;11.160;2022-12-18T08:59:27;27.50;;;11.50;;
5704;SDS011;2877;48.238;11.160;2022-12-18T09:01:53;24.93;;;10.60;;
5704;SDS011;2877;48.238;11.160;2022-12-18T09:04:20;23.53;;;11.13;;
5704;SDS011;2877;48.238;11.160;2022-12-18T09:06:46;28.93;;;12.90;;
5704;SDS011;2877;48.238;11.160;2022-12-18T09:09:11;23.77;;;10.80;;
5704;SDS011;2877;48.238;11.160;2022-12-18T09:11:37;26.27;;;11.67;;
5704;SDS011;2877;48.238;11.160;2022-12-18T09:14:03;24.80;;;10.60;;
5704;SDS011;2877;48.238;11.160;2022-12-18T09:16:30;25.53;;;12.63;;
5704;SDS011;2877;48.238;11.160;2022-12-18T09:18:56;27.93;;;12.67;;
5704;SDS011;2877;48.238;11.160;2022-12-18T09:21:25;23.10;;;11.30;;
5704;SDS011;2877;48.238;11.160;2022-12-18T09:23:53;24.23;;;11.80;;
5704;SDS011;2877;48.238;11.160;2022-12-18T09:26:21;26.87;;;11.30;;
5704;SDS011;2877;48.238;11.160;2022-12-18T09:28:47;20.67;;;10.73;;
5704;SDS011;2877;48.238;11.160;2022-12-18T09:31:13;25.30;;;11.20;;
5704;SDS011;2877;48.238;11.160;2022-12-18T09:33:39;23.60;;;11.30;;
5704;SDS011;2877;48.238;11.160;2022-12-18T09:36:06;27.70;;;11.97;;
5704;SDS011;2877;48.238;11.160;2022-12-18T09:38:34;25.07;;;11.77;;
5704;SDS011;2877;48.238;11.160;2022-12-18T09:41:03;23.17;;;11.63;;
5704;SDS011;2877;48.238;11.160;2022-12-18T09:43:43;27.70;;;12.53;;
5704;SDS011;2877;48.238;11.160;2022-12-18T09:46:15;22.97;;;12.60;;
5704;SDS011;2877;48.238;11.160;2022-12-18T09:48:54;24.00;;;11.27;;
5704;SDS011;2877;48.238;11.160;2022-12-18T09:51:26;23.83;;;11.80;;
5704;SDS011;2877;48.238;11.160;2022-12-18T09:54:00;26.73;;;11.90;;
5704;SDS011;2877;48.238;11.160;2022-12-18T09:56:29;24.10;;;11.57;;
5704;SDS011;2877;48.238;11.160;2022-12-18T09:59:02;23.53;;;10.73;;
5704;SDS011;2877;48.238;11.160;2022-12-18T10:01:29;24.47;;;11.47;;
5704;SDS011;2877;48.238;11.160;2022-12-18T10:03:56;22.70;;;12.00;;
5704;SDS011;2877;48.238;11.160;2022-12-18T10:06:31;24.30;;;11.63;;
5704;SDS011;2877;48.238;11.160;2022-12-18T10:09:09;25.87;;;11.37;;
5704;SDS011;2877;48.238;11.160;2022-12-18T10:12:35;21.53;;;11.90;;
5704;SDS011;2877;48.238;11.160;2022-12-18T10:20:37;29.30;;;13.13;;
5704;SDS011;2877;48.238;11.160;2022-12-18T10:28:14;25.30;;;12.17;;
5704;SDS011;2877;48.238;11.160;2022-12-18T10:30:42;24.47;;;11.70;;
5704;SDS011;2877;48.238;11.160;2022-12-18T10:33:15;20.97;;;10.70;;
5704;SDS011;2877;48.238;11.160;2022-12-18T10:35:43;23.87;;;11.80;;
5704;SDS011;2877;48.238;11.160;2022-12-18T10:43:33;24.53;;;11.90;;
5704;SDS011;2877;48.238;11.160;2022-12-18T10:51:23;25.40;;;12.30;;
5704;SDS011;2877;48.238;11.160;2022-12-18T10:53:55;24.47;;;11.23;;
5704;SDS011;2877;48.238;11.160;2022-12-18T10:56:23;24.00;;;11.93;;
5704;SDS011;2877;48.238;11.160;2022-12-18T10:59:01;22.73;;;11.27;;
5704;SDS011;2877;48.238;11.160;2022-12-18T11:01:32;24.60;;;11.07;;
5704;SDS011;2877;48.238;11.160;2022-12-18T11:04:16;22.40;;;11.73;;
5704;SDS011;2877;48.238;11.160;2022-12-18T11:07:00;23.90;;;11.20;;
5704;SDS011;2877;48.238;11.160;2022-12-18T11:11:58;24.50;;;12.90;;
5704;SDS011;2877;48.238;11.160;2022-12-18T11:14:27;22.13;;;10.50;;
5704;SDS011;2877;48.238;11.160;2022-12-18T11:16:58;20.90;;;11.40;;
5704;SDS011;2877;48.238;11.160;2022-12-18T11:19:30;23.50;;;11.40;;
5704;SDS011;2877;48.238;11.160;2022-12-18T11:22:01;22.00;;;12.60;;
5704;SDS011;2877;48.238;11.160;2022-12-18T11:24:42;28.53;;;13.40;;
5704;SDS011;2877;48.238;11.160;2022-12-18T11:27:15;24.40;;;11.93;;
5704;SDS011;2877;48.238;11.160;2022-12-18T11:29:43;24.33;;;11.67;;
5704;SDS011;2877;48.238;11.160;2022-12-18T11:34:48;25.63;;;11.27;;
5704;SDS011;2877;48.238;11.160;2022-12-18T11:37:20;23.40;;;12.13;;
5704;SDS011;2877;48.238;11.160;2022-12-18T11:39:46;23.50;;;10.97;;
5704;SDS011;2877;48.238;11.160;2022-12-18T11:42:38;29.87;;;13.10;;
5704;SDS011;2877;48.238;11.160;2022-12-18T11:47:39;25.17;;;12.63;;
5704;SDS011;2877;48.238;11.160;2022-12-18T11:50:21;23.33;;;11.33;;
5704;SDS011;2877;48.238;11.160;2022-12-18T11:52:49;22.60;;;12.13;;
5704;SDS011;2877;48.238;11.160;2022-12-18T11:55:16;25.70;;;12.23;;
5704;SDS011;2877;48.238;11.160;2022-12-18T11:58:10;21.20;;;10.83;;
5704;SDS011;2877;48.238;11.160;2022-12-18T12:00:49;21.60;;;11.40;;
5704;SDS011;2877;48.238;11.160;2022-12-18T12:06:24;24.77;;;11.43;;
5704;SDS011;2877;48.238;11.160;2022-12-18T12:09:24;21.80;;;11.70;;
5704;SDS011;2877;48.238;11.160;2022-12-18T12:22:45;21.60;;;11.07;;
5704;SDS011;2877;48.238;11.160;2022-12-18T12:25:59;22.47;;;11.37;;
5704;SDS011;2877;48.238;11.160;2022-12-18T12:37:26;24.27;;;11.57;;
5704;SDS011;2877;48.238;11.160;2022-12-18T12:40:16;25.10;;;12.50;;
5704;SDS011;2877;48.238;11.160;2022-12-18T12:42:45;29.73;;;13.47;;
5704;SDS011;2877;48.238;11.160;2022-12-18T12:45:38;24.70;;;12.70;;
5704;SDS011;2877;48.238;11.160;2022-12-18T12:51:00;21.90;;;11.07;;
5704;SDS011;2877;48.238;11.160;2022-12-18T12:53:29;21.87;;;11.83;;
5704;SDS011;2877;48.238;11.160;2022-12-18T12:56:04;27.23;;;12.63;;
5704;SDS011;2877;48.238;11.160;2022-12-18T12:58:34;20.97;;;11.43;;
5704;SDS011;2877;48.238;11.160;2022-12-18T13:01:14;19.70;;;11.00;;
5704;SDS011;2877;48.238;11.160;2022-12-18T13:09:09;24.17;;;11.90;;
5704;SDS011;2877;48.238;11.160;2022-12-18T13:14:35;23.13;;;12.00;;
5704;SDS011;2877;48.238;11.160;2022-12-18T13:19:56;27.90;;;11.00;;
5704;SDS011;2877;48.238;11.160;2022-12-18T13:22:29;23.53;;;11.40;;
5704;SDS011;2877;48.238;11.160;2022-12-18T13:25:00;23.37;;;11.63;;
5704;SDS011;2877;48.238;11.160;2022-12-18T13:35:39;29.53;;;12.77;;
5704;SDS011;2877;48.238;11.160;2022-12-18T13:40:56;30.33;;;13.83;;
5704;SDS011;2877;48.238;11.160;2022-12-18T13:43:29;29.33;;;13.43;;
5704;SDS011;2877;48.238;11.160;2022-12-18T13:45:59;29.20;;;14.07;;
5704;SDS011;2877;48.238;11.160;2022-12-18T13:48:27;35.10;;;15.50;;
5704;SDS011;2877;48.238;11.160;2022-12-18T13:53:25;29.27;;;13.80;;
5704;SDS011;2877;48.238;11.160;2022-12-18T13:55:54;39.23;;;15.10;;
5704;SDS011;2877;48.238;11.160;2022-12-18T13:58:20;32.87;;;13.57;;
5704;SDS011;2877;48.238;11.160;2022-12-18T14:00:45;39.53;;;15.20;;
5704;SDS011;2877;48.238;11.160;2022-12-18T14:03:16;34.57;;;14.90;;
5704;SDS011;2877;48.238;11.160;2022-12-18T14:05:52;35.07;;;15.10;;
5704;SDS011;2877;48.238;11.160;2022-12-18T14:08:19;37.27;;;14.27;;
5704;SDS011;2877;48.238;11.160;2022-12-18T14:10:46;33.20;;;14.93;;
5704;SDS011;2877;48.238;11.160;2022-12-18T14:13:24;28.10;;;14.63;;
5704;SDS011;2877;48.238;11.160;2022-12-18T14:15:54;32.50;;;14.10;;
5704;SDS011;2877;48.238;11.160;2022-12-18T14:18:22;32.40;;;13.40;;
5704;SDS011;2877;48.238;11.160;2022-12-18T14:20:54;27.57;;;13.90;;
5704;SDS011;2877;48.238;11.160;2022-12-18T14:23:33;27.10;;;13.40;;
5704;SDS011;2877;48.238;11.160;2022-12-18T14:26:02;25.80;;;12.33;;
5704;SDS011;2877;48.238;11.160;2022-12-18T14:28:45;32.70;;;14.10;;
5704;SDS011;2877;48.238;11.160;2022-12-18T14:31:44;33.00;;;14.20;;
5704;SDS011;2877;48.238;11.160;2022-12-18T14:34:03;27.10;;;12.60;;
5704;SDS011;2877;48.238;11.160;2022-12-18T14:36:28;29.20;;;12.73;;
5704;SDS011;2877;48.238;11.160;2022-12-18T14:38:57;32.57;;;13.93;;
5704;SDS011;2877;48.238;11.160;2022-12-18T14:41:24;23.20;;;12.13;;
5704;SDS011;2877;48.238;11.160;2022-12-18T14:43:52;26.37;;;12.20;;
5704;SDS011;2877;48.238;11.160;2022-12-18T14:49:02;26.73;;;11.20;;
5704;SDS011;2877;48.238;11.160;2022-12-18T14:51:52;23.73;;;11.47;;
5704;SDS011;2877;48.238;11.160;2022-12-18T14:54:20;25.50;;;12.33;;
5704;SDS011;2877;48.238;11.160;2022-12-18T14:56:47;28.17;;;12.10;;
5704;SDS011;2877;48.238;11.160;2022-12-18T14:59:17;20.53;;;10.70;;
5704;SDS011;2877;48.238;11.160;2022-12-18T15:01:47;24.70;;;10.57;;
5704;SDS011;2877;48.238;11.160;2022-12-18T15:04:25;24.10;;;11.27;;
5704;SDS011;2877;48.238;11.160;2022-12-18T15:09:36;26.17;;;11.27;;
5704;SDS011;2877;48.238;11.160;2022-12-18T15:12:03;21.23;;;11.53;;
5704;SDS011;2877;48.238;11.160;2022-12-18T15:14:47;23.77;;;10.37;;
5704;SDS011;2877;48.238;11.160;2022-12-18T15:17:20;22.70;;;10.37;;
5704;SDS011;2877;48.238;11.160;2022-12-18T15:19:48;24.17;;;10.73;;
5704;SDS011;2877;48.238;11.160;2022-12-18T15:22:17;24.53;;;11.40;;
5704;SDS011;2877;48.238;11.160;2022-12-18T15:24:51;26.07;;;11.80;;
5704;SDS011;2877;48.238;11.160;2022-12-18T15:27:25;19.83;;;10.17;;
5704;SDS011;2877;48.238;11.160;2022-12-18T15:30:00;20.43;;;10.67;;
5704;SDS011;2877;48.238;11.160;2022-12-18T15:32:32;19.30;;;9.97;;
5704;SDS011;2877;48.238;11.160;2022-12-18T15:37:36;21.63;;;10.57;;
5704;SDS011;2877;48.238;11.160;2022-12-18T15:40:02;18.40;;;10.60;;
5704;SDS011;2877;48.238;11.160;2022-12-18T15:42:29;21.10;;;10.73;;
5704;SDS011;2877;48.238;11.160;2022-12-18T15:45:13;20.57;;;10.57;;
5704;SDS011;2877;48.238;11.160;2022-12-18T15:47:39;23.57;;;11.00;;
5704;SDS011;2877;48.238;11.160;2022-12-18T15:50:06;20.73;;;10.37;;
5704;SDS011;2877;48.238;11.160;2022-12-18T15:52:35;23.40;;;11.37;;
5704;SDS011;2877;48.238;11.160;2022-12-18T15:55:05;24.33;;;11.50;;
5704;SDS011;2877;48.238;11.160;2022-12-18T15:58:07;25.33;;;11.23;;
5704;SDS011;2877;48.238;11.160;2022-12-18T16:00:34;26.87;;;12.40;;
5704;SDS011;2877;48.238;11.160;2022-12-18T16:03:01;25.30;;;10.77;;
5704;SDS011;2877;48.238;11.160;2022-12-18T16:05:28;28.23;;;12.30;;
5704;SDS011;2877;48.238;11.160;2022-12-18T16:07:54;24.53;;;12.10;;
5704;SDS011;2877;48.238;11.160;2022-12-18T16:10:19;32.30;;;12.53;;
5704;SDS011;2877;48.238;11.160;2022-12-18T16:12:45;25.13;;;12.13;;
5704;SDS011;2877;48.238;11.160;2022-12-18T16:15:14;24.90;;;11.67;;
5704;SDS011;2877;48.238;11.160;2022-12-18T16:17:41;31.70;;;12.67;;
5704;SDS011;2877;48.238;11.160;2022-12-18T16:20:11;24.07;;;10.90;;
5704;SDS011;2877;48.238;11.160;2022-12-18T16:22:42;27.27;;;12.30;;
5704;SDS011;2877;48.238;11.160;2022-12-18T16:25:16;27.23;;;13.17;;
5704;SDS011;2877;48.238;11.160;2022-12-18T16:27:42;33.27;;;13.50;;
5704;SDS011;2877;48.238;11.160;2022-12-18T16:30:11;25.27;;;12.23;;
5704;SDS011;2877;48.238;11.160;2022-12-18T16:32:38;27.77;;;13.43;;
5704;SDS011;2877;48.238;11.160;2022-12-18T16:35:03;29.93;;;13.47;;